Time;durP1;ratioP1;P1;durP2;ratioP2;P2;SDS_P1;SDS_P2;PMS_P1;PMS_P2;Temp;Humidity;BMP_temperature;BMP_pressure;BME280_temperature;BME280_humidity;BME280_pressure;Samples;Min_cycle;Max_cycle;Signal;HPM_P1;HPM_P2
2023/04/16 00:02:15;;;;;;;23.38;14.00;;;;;;;;;;5015618;28;20455;-80
2023/04/16 00:04:40;;;;;;;22.65;12.75;;;;;;;;;;4997925;28;20057;-80
2023/04/16 00:07:06;;;;;;;23.63;14.18;;;;;;;;;;5018382;28;20034;-79
2023/04/16 00:09:32;;;;;;;26.27;13.82;;;;;;;;;;4995148;28;20037;-80
2023/04/16 00:11:57;;;;;;;22.50;13.77;;;;;;;;;;4997353;28;20176;-80
2023/04/16 00:14:22;;;;;;;27.27;15.27;;;;;;;;;;5015677;28;20041;-79
2023/04/16 00:16:48;;;;;;;23.33;13.63;;;;;;;;;;4991510;28;20040;-79
2023/04/16 00:19:13;;;;;;;22.73;13.48;;;;;;;;;;4984401;28;20121;-79
2023/04/16 00:21:38;;;;;;;22.55;13.98;;;;;;;;;;5016677;28;20060;-80
2023/04/16 00:24:04;;;;;;;26.13;14.85;;;;;;;;;;5013759;28;20168;-79
2023/04/16 00:26:29;;;;;;;23.55;14.43;;;;;;;;;;4999009;28;20046;-79
2023/04/16 00:28:55;;;;;;;27.42;14.50;;;;;;;;;;5015831;28;20038;-79
2023/04/16 00:31:31;;;;;;;22.58;14.15;;;;;;;;;;5013333;28;20389;-79
2023/04/16 00:33:56;;;;;;;23.23;14.25;;;;;;;;;;5016354;28;20092;-79
2023/04/16 00:36:26;;;;;;;26.23;15.00;;;;;;;;;;4996261;28;20038;-79
2023/04/16 00:38:52;;;;;;;23.95;14.52;;;;;;;;;;5018575;28;20026;-79
2023/04/16 00:41:17;;;;;;;24.35;14.07;;;;;;;;;;4999005;28;20374;-79
2023/04/16 00:43:42;;;;;;;24.38;13.95;;;;;;;;;;4992156;28;20133;-80
2023/04/16 00:46:08;;;;;;;26.40;15.35;;;;;;;;;;4980497;28;20117;-79
2023/04/16 00:48:37;;;;;;;22.60;12.82;;;;;;;;;;5015444;28;20458;-79
2023/04/16 00:51:07;;;;;;;23.98;13.80;;;;;;;;;;4977306;28;20033;-79
2023/04/16 00:53:33;;;;;;;23.50;14.73;;;;;;;;;;5001526;28;20367;-79
2023/04/16 00:55:59;;;;;;;26.63;14.85;;;;;;;;;;5000293;28;20378;-79
2023/04/16 00:58:25;;;;;;;23.67;14.40;;;;;;;;;;5000983;28;20592;-79
2023/04/16 01:00:50;;;;;;;26.92;14.77;;;;;;;;;;4996497;28;20034;-80
2023/04/16 01:03:16;;;;;;;25.38;14.57;;;;;;;;;;4995951;28;20367;-80
2023/04/16 01:05:42;;;;;;;25.35;14.35;;;;;;;;;;4994832;28;20505;-80
2023/04/16 01:08:19;;;;;;;25.57;14.40;;;;;;;;;;4997273;28;20934;-79
2023/04/16 01:10:44;;;;;;;24.38;14.68;;;;;;;;;;4997291;28;20397;-79
2023/04/16 01:13:10;;;;;;;24.05;13.88;;;;;;;;;;4981716;28;20034;-80
2023/04/16 01:15:36;;;;;;;23.23;13.68;;;;;;;;;;5006577;28;20034;-80
2023/04/16 01:18:02;;;;;;;24.33;14.25;;;;;;;;;;5013279;28;20379;-80
2023/04/16 01:20:28;;;;;;;25.42;14.80;;;;;;;;;;5011926;28;20056;-79
2023/04/16 01:22:53;;;;;;;25.67;15.00;;;;;;;;;;5014624;28;20037;-80
2023/04/16 01:25:19;;;;;;;24.00;13.95;;;;;;;;;;4994014;28;20418;-80
2023/04/16 01:27:44;;;;;;;27.55;15.38;;;;;;;;;;5013440;28;20033;-79
2023/04/16 01:30:10;;;;;;;23.83;13.55;;;;;;;;;;5012926;28;20509;-79
2023/04/16 01:32:35;;;;;;;24.88;14.45;;;;;;;;;;5013896;28;20456;-79
2023/04/16 01:35:00;;;;;;;24.65;14.40;;;;;;;;;;5013749;28;20030;-79
2023/04/16 01:37:26;;;;;;;25.80;14.48;;;;;;;;;;5011177;28;20038;-79
2023/04/16 01:39:51;;;;;;;25.08;14.05;;;;;;;;;;4995047;28;20073;-79
2023/04/16 01:42:17;;;;;;;25.88;14.18;;;;;;;;;;5013551;28;20045;-79
2023/04/16 01:44:42;;;;;;;26.52;14.13;;;;;;;;;;5012694;28;20025;-79
2023/04/16 01:47:07;;;;;;;24.85;14.75;;;;;;;;;;4994633;28;20042;-80
2023/04/16 01:49:35;;;;;;;24.92;14.35;;;;;;;;;;5012136;28;20060;-80
2023/04/16 01:52:00;;;;;;;28.55;14.98;;;;;;;;;;4978768;28;20044;-79
2023/04/16 01:54:26;;;;;;;25.27;14.88;;;;;;;;;;5014113;28;20496;-81
2023/04/16 01:56:51;;;;;;;24.85;14.50;;;;;;;;;;5016181;28;20113;-79
2023/04/16 01:59:17;;;;;;;24.65;14.65;;;;;;;;;;4997621;28;20041;-81
2023/04/16 02:01:42;;;;;;;25.65;14.38;;;;;;;;;;4996629;28;20572;-81
2023/04/16 02:04:08;;;;;;;24.42;13.63;;;;;;;;;;4998471;28;20034;-81
2023/04/16 02:06:34;;;;;;;26.00;13.80;;;;;;;;;;5003900;28;20045;-80
2023/04/16 02:08:59;;;;;;;23.17;13.10;;;;;;;;;;4991916;28;20060;-81
2023/04/16 02:11:25;;;;;;;24.67;14.32;;;;;;;;;;4996604;28;20037;-82
2023/04/16 02:13:50;;;;;;;23.42;14.10;;;;;;;;;;5013024;28;20033;-81
2023/04/16 02:16:28;;;;;;;25.42;14.20;;;;;;;;;;4994651;28;20493;-80
2023/04/16 02:18:53;;;;;;;22.45;13.68;;;;;;;;;;5004426;28;20034;-80
2023/04/16 02:21:19;;;;;;;27.30;15.18;;;;;;;;;;5012911;28;20401;-79
2023/04/16 02:23:50;;;;;;;27.50;13.98;;;;;;;;;;4981518;28;20561;-79
2023/04/16 02:26:15;;;;;;;28.45;14.57;;;;;;;;;;4996004;28;20080;-80
2023/04/16 02:28:41;;;;;;;23.75;14.00;;;;;;;;;;4987966;28;20473;-80
2023/04/16 02:31:06;;;;;;;24.80;14.98;;;;;;;;;;4997939;28;20099;-79
2023/04/16 02:33:32;;;;;;;25.70;14.85;;;;;;;;;;5000105;28;20037;-79
2023/04/16 02:35:57;;;;;;;28.67;14.43;;;;;;;;;;5012131;28;20034;-80
2023/04/16 02:38:22;;;;;;;22.75;13.35;;;;;;;;;;4994032;28;20088;-80
2023/04/16 02:40:48;;;;;;;24.55;14.18;;;;;;;;;;4996072;28;20033;-80
2023/04/16 02:43:13;;;;;;;23.63;13.82;;;;;;;;;;4994880;28;20034;-80
2023/04/16 02:45:39;;;;;;;22.27;13.18;;;;;;;;;;4981231;28;20034;-80
2023/04/16 02:48:06;;;;;;;23.90;12.60;;;;;;;;;;4979331;28;20030;-80
2023/04/16 02:50:31;;;;;;;20.48;12.80;;;;;;;;;;5011871;28;20469;-80
2023/04/16 02:52:56;;;;;;;22.35;12.55;;;;;;;;;;5013125;28;20116;-79
2023/04/16 02:55:22;;;;;;;23.08;13.18;;;;;;;;;;4997662;28;20095;-79
2023/04/16 02:57:47;;;;;;;22.95;12.82;;;;;;;;;;5013312;28;20116;-79
2023/04/16 03:00:13;;;;;;;24.30;13.38;;;;;;;;;;4998890;28;20038;-79
2023/04/16 03:02:38;;;;;;;23.20;12.93;;;;;;;;;;5012405;28;20037;-79
2023/04/16 03:05:04;;;;;;;25.55;13.85;;;;;;;;;;5014100;28;20034;-80
2023/04/16 03:07:29;;;;;;;24.58;13.38;;;;;;;;;;5011412;28;20539;-80
2023/04/16 03:09:55;;;;;;;23.25;14.13;;;;;;;;;;4995795;28;20041;-79
2023/04/16 03:12:20;;;;;;;23.85;14.05;;;;;;;;;;4997616;28;20037;-80
2023/04/16 03:14:46;;;;;;;27.88;14.27;;;;;;;;;;4997994;28;20738;-80
2023/04/16 03:17:11;;;;;;;26.65;14.40;;;;;;;;;;5010371;28;20029;-80
2023/04/16 03:19:36;;;;;;;25.63;14.55;;;;;;;;;;5014276;28;20131;-80
2023/04/16 03:22:02;;;;;;;28.55;14.23;;;;;;;;;;5013852;28;20077;-80
2023/04/16 03:24:28;;;;;;;28.48;14.48;;;;;;;;;;5012215;28;20053;-82
2023/04/16 03:26:53;;;;;;;28.17;15.73;;;;;;;;;;5011603;28;20038;-80
2023/04/16 03:29:19;;;;;;;26.92;15.63;;;;;;;;;;4997659;28;20034;-80
2023/04/16 03:31:44;;;;;;;25.25;14.23;;;;;;;;;;5015357;28;20033;-79
2023/04/16 03:34:10;;;;;;;31.75;16.13;;;;;;;;;;5017701;28;20041;-80
2023/04/16 03:36:35;;;;;;;26.90;14.25;;;;;;;;;;5016962;28;20452;-80
2023/04/16 03:39:00;;;;;;;26.42;15.65;;;;;;;;;;5015676;28;20042;-80
2023/04/16 03:41:26;;;;;;;26.73;14.80;;;;;;;;;;4983286;28;20402;-80
2023/04/16 03:43:51;;;;;;;25.90;14.45;;;;;;;;;;5017309;28;20061;-80
2023/04/16 03:46:16;;;;;;;26.05;14.48;;;;;;;;;;4991198;28;20049;-80
2023/04/16 03:48:42;;;;;;;25.52;14.77;;;;;;;;;;5000310;28;20183;-80
2023/04/16 03:51:07;;;;;;;26.58;14.55;;;;;;;;;;4979989;28;20034;-80
2023/04/16 03:53:32;;;;;;;27.35;14.43;;;;;;;;;;4982744;28;20076;-80
2023/04/16 03:55:58;;;;;;;26.10;14.10;;;;;;;;;;5005976;28;20056;-80
2023/04/16 03:58:23;;;;;;;29.15;15.13;;;;;;;;;;5014747;28;20406;-80
2023/04/16 04:00:52;;;;;;;29.65;15.05;;;;;;;;;;4990905;28;20025;-80
2023/04/16 04:03:17;;;;;;;28.58;15.13;;;;;;;;;;4985730;28;20120;-80
2023/04/16 04:05:42;;;;;;;28.48;15.63;;;;;;;;;;4998262;28;20065;-80
2023/04/16 04:08:08;;;;;;;27.35;14.82;;;;;;;;;;5012248;28;20084;-79
2023/04/16 04:10:34;;;;;;;27.95;14.85;;;;;;;;;;5009749;28;20232;-79
2023/04/16 04:13:04;;;;;;;28.35;15.13;;;;;;;;;;4997904;28;20026;-79
2023/04/16 04:15:29;;;;;;;28.98;15.02;;;;;;;;;;5001557;28;20477;-79
2023/04/16 04:17:55;;;;;;;29.60;14.65;;;;;;;;;;5014202;28;20034;-79
2023/04/16 04:20:20;;;;;;;25.92;14.43;;;;;;;;;;5014435;28;20042;-80
2023/04/16 04:22:46;;;;;;;24.75;14.30;;;;;;;;;;5013117;28;20037;-80
2023/04/16 04:25:11;;;;;;;28.60;15.02;;;;;;;;;;5000876;28;20515;-80
2023/04/16 04:27:37;;;;;;;27.00;14.38;;;;;;;;;;5015645;28;20049;-80
2023/04/16 04:30:05;;;;;;;25.70;14.95;;;;;;;;;;5013962;28;20428;-79
2023/04/16 04:32:30;;;;;;;33.10;15.30;;;;;;;;;;5015270;28;20042;-79
2023/04/16 04:34:56;;;;;;;27.65;14.75;;;;;;;;;;4999492;28;20354;-80
2023/04/16 04:37:22;;;;;;;31.33;15.68;;;;;;;;;;5015515;28;20046;-80
2023/04/16 04:39:47;;;;;;;30.13;15.55;;;;;;;;;;5015400;28;20855;-80
2023/04/16 04:42:12;;;;;;;25.90;14.98;;;;;;;;;;4999217;28;20033;-79
2023/04/16 04:44:38;;;;;;;28.45;14.40;;;;;;;;;;5015263;28;20387;-80
2023/04/16 04:47:03;;;;;;;29.38;15.43;;;;;;;;;;4995772;28;20064;-80
2023/04/16 04:49:29;;;;;;;30.38;15.73;;;;;;;;;;4984719;28;20041;-80
2023/04/16 04:51:55;;;;;;;30.48;16.02;;;;;;;;;;4995839;28;20513;-80
2023/04/16 04:54:20;;;;;;;29.20;14.73;;;;;;;;;;4984984;28;20046;-79
2023/04/16 04:56:46;;;;;;;30.52;15.52;;;;;;;;;;5013307;28;20095;-80
2023/04/16 04:59:11;;;;;;;31.02;15.55;;;;;;;;;;5013855;28;20155;-80
2023/04/16 05:01:37;;;;;;;30.35;15.40;;;;;;;;;;5014752;28;20037;-80
2023/04/16 05:04:03;;;;;;;31.02;15.95;;;;;;;;;;4994530;28;20510;-79
2023/04/16 05:06:28;;;;;;;30.48;15.73;;;;;;;;;;5013332;28;20087;-79
2023/04/16 05:08:53;;;;;;;29.60;15.32;;;;;;;;;;5016057;28;20034;-79
2023/04/16 05:11:19;;;;;;;28.98;13.85;;;;;;;;;;5013496;28;20029;-80
2023/04/16 05:13:44;;;;;;;29.85;15.90;;;;;;;;;;4984658;28;20033;-79
2023/04/16 05:16:10;;;;;;;30.20;15.43;;;;;;;;;;5000293;28;20056;-80
2023/04/16 05:18:35;;;;;;;30.27;16.08;;;;;;;;;;4995891;28;20037;-79
2023/04/16 05:21:00;;;;;;;32.17;15.18;;;;;;;;;;5013085;28;20112;-80
2023/04/16 05:23:27;;;;;;;28.67;14.13;;;;;;;;;;5015092;28;20053;-79
2023/04/16 05:25:52;;;;;;;32.38;15.27;;;;;;;;;;5013392;28;20033;-80
2023/04/16 05:28:18;;;;;;;29.88;14.77;;;;;;;;;;4995223;28;20063;-79
2023/04/16 05:30:43;;;;;;;33.00;14.80;;;;;;;;;;5015094;28;20029;-79
2023/04/16 05:33:08;;;;;;;28.83;14.70;;;;;;;;;;4983076;28;20041;-79
2023/04/16 05:35:34;;;;;;;28.67;14.75;;;;;;;;;;5014218;28;20080;-79
2023/04/16 05:37:59;;;;;;;30.25;15.55;;;;;;;;;;5014705;28;20450;-79
2023/04/16 05:40:25;;;;;;;32.63;15.93;;;;;;;;;;4995202;28;20042;-79
2023/04/16 05:42:51;;;;;;;29.90;15.30;;;;;;;;;;4999104;28;20772;-79
2023/04/16 05:45:16;;;;;;;31.67;15.80;;;;;;;;;;4995592;28;20044;-80
2023/04/16 05:47:42;;;;;;;30.50;15.27;;;;;;;;;;5012213;28;20045;-79
2023/04/16 05:50:08;;;;;;;32.53;15.93;;;;;;;;;;5011733;28;20041;-82
2023/04/16 05:52:33;;;;;;;25.80;13.93;;;;;;;;;;4996377;28;20029;-82
2023/04/16 05:55:00;;;;;;;29.17;14.48;;;;;;;;;;4985389;28;20045;-83
2023/04/16 05:57:27;;;;;;;26.77;14.45;;;;;;;;;;5002085;28;20371;-83
2023/04/16 05:59:52;;;;;;;24.75;14.15;;;;;;;;;;5014517;28;20057;-81
2023/04/16 06:02:18;;;;;;;23.27;13.85;;;;;;;;;;4996395;28;20794;-83
2023/04/16 06:04:44;;;;;;;24.70;13.13;;;;;;;;;;4996571;28;20034;-82
2023/04/16 06:07:09;;;;;;;25.58;14.15;;;;;;;;;;4997240;28;20428;-82
2023/04/16 06:09:35;;;;;;;25.65;13.35;;;;;;;;;;4997370;28;20555;-83
2023/04/16 06:12:00;;;;;;;25.45;13.70;;;;;;;;;;5011739;28;20046;-83
2023/04/16 06:14:26;;;;;;;25.75;12.13;;;;;;;;;;5012392;28;20572;-83
2023/04/16 06:16:51;;;;;;;25.17;12.48;;;;;;;;;;4997159;28;20488;-83
2023/04/16 06:19:17;;;;;;;23.95;13.07;;;;;;;;;;4996250;28;20044;-82
2023/04/16 06:21:42;;;;;;;23.55;12.20;;;;;;;;;;5004574;28;20030;-82
2023/04/16 06:24:07;;;;;;;24.40;12.35;;;;;;;;;;5012350;28;20057;-82
2023/04/16 06:26:33;;;;;;;25.38;13.07;;;;;;;;;;5011458;28;20469;-83
2023/04/16 06:28:58;;;;;;;22.50;12.25;;;;;;;;;;4983226;28;20109;-82
2023/04/16 06:31:23;;;;;;;21.67;11.55;;;;;;;;;;4999660;28;20053;-82
2023/04/16 06:33:49;;;;;;;26.67;13.27;;;;;;;;;;5014985;28;20026;-82
2023/04/16 06:36:15;;;;;;;21.83;12.90;;;;;;;;;;4995074;28;20099;-82
2023/04/16 06:38:41;;;;;;;26.23;12.27;;;;;;;;;;4980213;28;20030;-82
2023/04/16 06:41:06;;;;;;;25.35;12.32;;;;;;;;;;4994625;28;20041;-83
2023/04/16 06:43:32;;;;;;;24.77;13.30;;;;;;;;;;5010418;28;20033;-82
2023/04/16 06:45:58;;;;;;;20.60;11.80;;;;;;;;;;4995552;28;20416;-82
2023/04/16 06:48:24;;;;;;;23.42;12.77;;;;;;;;;;4982238;28;20502;-82
2023/04/16 06:50:49;;;;;;;23.42;12.13;;;;;;;;;;5012428;28;20064;-83
2023/04/16 06:53:15;;;;;;;22.33;11.73;;;;;;;;;;4994232;28;20092;-82
2023/04/16 06:55:40;;;;;;;24.75;13.15;;;;;;;;;;4994524;28;20033;-82
2023/04/16 06:58:06;;;;;;;22.85;12.93;;;;;;;;;;4982209;28;20037;-83
2023/04/16 07:00:31;;;;;;;23.15;13.02;;;;;;;;;;4983454;28;20041;-82
2023/04/16 07:02:59;;;;;;;22.35;12.55;;;;;;;;;;5011975;28;20104;-82
2023/04/16 07:05:25;;;;;;;23.83;12.70;;;;;;;;;;5011901;28;20059;-82
2023/04/16 07:07:51;;;;;;;22.67;12.32;;;;;;;;;;5002580;28;20038;-82
2023/04/16 07:10:16;;;;;;;24.60;12.30;;;;;;;;;;4984793;28;20485;-82
2023/04/16 07:12:42;;;;;;;21.75;12.73;;;;;;;;;;5017484;28;20034;-82
2023/04/16 07:15:08;;;;;;;25.20;12.75;;;;;;;;;;4999901;28;20037;-82
2023/04/16 07:17:33;;;;;;;23.52;13.25;;;;;;;;;;5017896;28;20095;-82
2023/04/16 07:19:58;;;;;;;22.25;11.85;;;;;;;;;;5007954;28;20042;-82
2023/04/16 07:22:24;;;;;;;23.40;12.13;;;;;;;;;;5001714;28;20037;-82
2023/04/16 07:24:49;;;;;;;23.20;12.48;;;;;;;;;;5015938;28;20121;-83
2023/04/16 07:27:15;;;;;;;25.15;12.20;;;;;;;;;;4994496;28;20030;-86
2023/04/16 07:29:41;;;;;;;27.17;12.90;;;;;;;;;;5016164;28;20032;-80
2023/04/16 07:32:07;;;;;;;21.65;12.32;;;;;;;;;;4990479;28;20471;-80
2023/04/16 07:34:32;;;;;;;21.67;12.90;;;;;;;;;;4999879;28;20035;-81
2023/04/16 07:36:57;;;;;;;20.85;12.63;;;;;;;;;;5014193;28;20381;-80
2023/04/16 07:39:23;;;;;;;23.52;11.70;;;;;;;;;;5014689;28;20155;-78
2023/04/16 07:41:48;;;;;;;22.85;12.15;;;;;;;;;;4997701;28;20034;-78
2023/04/16 07:44:13;;;;;;;20.38;12.07;;;;;;;;;;5002993;28;20448;-79
2023/04/16 07:46:39;;;;;;;22.73;12.40;;;;;;;;;;5015533;28;20575;-79
2023/04/16 07:49:04;;;;;;;23.70;12.60;;;;;;;;;;5015000;28;20775;-79
2023/04/16 07:51:30;;;;;;;23.70;12.45;;;;;;;;;;4995091;28;21535;-78
2023/04/16 07:53:55;;;;;;;22.55;12.85;;;;;;;;;;5007442;28;20045;-79
2023/04/16 07:56:21;;;;;;;22.30;11.93;;;;;;;;;;5002511;28;20486;-80
2023/04/16 07:58:46;;;;;;;21.55;12.23;;;;;;;;;;5006650;28;20064;-81
2023/04/16 08:01:12;;;;;;;21.83;12.07;;;;;;;;;;5017518;28;20496;-82
2023/04/16 08:03:37;;;;;;;19.13;10.88;;;;;;;;;;4981452;28;20117;-81
2023/04/16 08:06:03;;;;;;;22.15;12.15;;;;;;;;;;4995694;28;20125;-82
2023/04/16 08:08:28;;;;;;;22.33;11.10;;;;;;;;;;4998932;28;20036;-80
2023/04/16 08:10:54;;;;;;;20.65;10.77;;;;;;;;;;4982243;28;20044;-80
2023/04/16 08:13:23;;;;;;;20.50;11.07;;;;;;;;;;4997950;28;20049;-79
2023/04/16 08:15:48;;;;;;;20.25;11.10;;;;;;;;;;5006386;28;20131;-80
2023/04/16 08:18:14;;;;;;;21.70;11.55;;;;;;;;;;4998279;28;20038;-79
2023/04/16 08:20:40;;;;;;;19.02;10.45;;;;;;;;;;4997265;28;20030;-80
2023/04/16 08:23:05;;;;;;;19.90;11.05;;;;;;;;;;5014935;28;20044;-80
2023/04/16 08:25:31;;;;;;;20.02;10.95;;;;;;;;;;4998546;28;20037;-80
2023/04/16 08:27:56;;;;;;;22.13;11.23;;;;;;;;;;4978367;28;20046;-79
2023/04/16 08:30:22;;;;;;;20.48;11.00;;;;;;;;;;5000321;28;20421;-79
2023/04/16 08:32:47;;;;;;;21.83;11.38;;;;;;;;;;5014197;28;20506;-79
2023/04/16 08:35:12;;;;;;;20.38;10.32;;;;;;;;;;5016645;28;20428;-80
2023/04/16 08:37:38;;;;;;;21.20;10.85;;;;;;;;;;4996144;28;20565;-79
2023/04/16 08:40:04;;;;;;;23.88;11.15;;;;;;;;;;5012943;28;20038;-80
2023/04/16 08:42:39;;;;;;;20.40;11.07;;;;;;;;;;5015611;28;20513;-80
2023/04/16 08:45:14;;;;;;;20.30;10.15;;;;;;;;;;5017227;28;20061;-80
2023/04/16 08:47:40;;;;;;;20.90;10.57;;;;;;;;;;4998313;28;20482;-80
2023/04/16 08:50:08;;;;;;;17.60;9.85;;;;;;;;;;4984152;28;20069;-79
2023/04/16 08:52:36;;;;;;;18.15;10.38;;;;;;;;;;4997434;28;20062;-79
2023/04/16 08:55:02;;;;;;;21.38;10.15;;;;;;;;;;4995072;28;20498;-79
2023/04/16 08:57:30;;;;;;;18.10;9.57;;;;;;;;;;4998969;28;20045;-79
2023/04/16 08:59:56;;;;;;;18.40;9.80;;;;;;;;;;5007175;28;20675;-77
2023/04/16 09:02:22;;;;;;;18.38;9.43;;;;;;;;;;5013928;28;20389;-76
2023/04/16 09:04:48;;;;;;;17.50;9.48;;;;;;;;;;5015229;28;20047;-76
2023/04/16 09:07:13;;;;;;;15.60;9.43;;;;;;;;;;4981142;28;20124;-77
2023/04/16 09:09:39;;;;;;;15.73;8.95;;;;;;;;;;4999537;28;20037;-77
2023/04/16 09:12:06;;;;;;;15.27;8.60;;;;;;;;;;5001327;28;20037;-77
2023/04/16 09:14:31;;;;;;;16.15;8.65;;;;;;;;;;4995924;28;20042;-77
2023/04/16 09:16:59;;;;;;;15.65;8.82;;;;;;;;;;4980332;28;20080;-76
2023/04/16 09:19:25;;;;;;;17.52;9.50;;;;;;;;;;5013337;28;20505;-76
2023/04/16 09:21:50;;;;;;;15.52;8.50;;;;;;;;;;5013263;28;20091;-78
2023/04/16 09:24:16;;;;;;;17.13;8.52;;;;;;;;;;4993384;28;20046;-77
2023/04/16 09:26:44;;;;;;;16.65;9.18;;;;;;;;;;4995580;28;20113;-78
2023/04/16 09:29:09;;;;;;;15.40;9.10;;;;;;;;;;4991794;28;20035;-77
2023/04/16 09:31:35;;;;;;;16.48;8.57;;;;;;;;;;4990307;28;20489;-77
2023/04/16 09:34:01;;;;;;;19.80;9.52;;;;;;;;;;5001897;28;22892;-77
2023/04/16 09:36:27;;;;;;;15.60;8.68;;;;;;;;;;4985616;28;20122;-78
2023/04/16 09:38:54;;;;;;;16.20;9.63;;;;;;;;;;4979909;28;20513;-77
2023/04/16 09:41:26;;;;;;;16.38;8.85;;;;;;;;;;4993920;28;20536;-78
2023/04/16 09:43:56;;;;;;;16.25;8.85;;;;;;;;;;5003123;28;20092;-77
2023/04/16 09:46:22;;;;;;;15.63;9.05;;;;;;;;;;4990064;28;20050;-78
2023/04/16 09:48:48;;;;;;;15.90;8.85;;;;;;;;;;4992841;28;20100;-78
2023/04/16 09:51:13;;;;;;;13.27;7.78;;;;;;;;;;4993746;28;20038;-78
2023/04/16 09:53:38;;;;;;;14.02;7.90;;;;;;;;;;4994274;28;20030;-79
2023/04/16 09:56:05;;;;;;;15.35;8.85;;;;;;;;;;4993860;28;20068;-78
2023/04/16 09:58:31;;;;;;;12.55;8.25;;;;;;;;;;4978707;28;21160;-78
2023/04/16 10:01:07;;;;;;;15.70;8.90;;;;;;;;;;4992088;28;20049;-79
2023/04/16 10:03:34;;;;;;;14.65;8.05;;;;;;;;;;4990666;28;20486;-79
2023/04/16 10:06:15;;;;;;;13.73;8.25;;;;;;;;;;5002196;28;20034;-81
2023/04/16 10:08:46;;;;;;;15.90;8.60;;;;;;;;;;4994654;28;20034;-80
2023/04/16 10:11:11;;;;;;;15.88;9.18;;;;;;;;;;5002484;28;20571;-80
2023/04/16 10:13:37;;;;;;;15.45;8.95;;;;;;;;;;4996304;28;20049;-79
2023/04/16 10:16:03;;;;;;;15.18;8.88;;;;;;;;;;4972202;28;20157;-81
2023/04/16 10:18:28;;;;;;;17.77;9.80;;;;;;;;;;4979605;28;20049;-79
2023/04/16 10:20:54;;;;;;;18.10;9.77;;;;;;;;;;4996069;28;20493;-79
2023/04/16 10:23:20;;;;;;;19.33;10.52;;;;;;;;;;4993409;28;20034;-79
2023/04/16 10:25:50;;;;;;;18.33;10.23;;;;;;;;;;4980589;28;20116;-79
2023/04/16 10:28:16;;;;;;;18.73;10.40;;;;;;;;;;4992290;28;20057;-79
2023/04/16 10:30:51;;;;;;;21.55;10.80;;;;;;;;;;4992973;28;20064;-78
2023/04/16 10:33:22;;;;;;;18.05;10.43;;;;;;;;;;4996150;28;20746;-80
2023/04/16 10:35:49;;;;;;;19.77;11.07;;;;;;;;;;4985962;28;20037;-80
2023/04/16 10:38:25;;;;;;;20.98;11.40;;;;;;;;;;5011682;28;20168;-79
2023/04/16 10:40:58;;;;;;;18.45;10.48;;;;;;;;;;4992073;28;20362;-80
2023/04/16 10:43:24;;;;;;;20.52;10.40;;;;;;;;;;5014417;28;20035;-79
2023/04/16 10:45:49;;;;;;;20.33;10.98;;;;;;;;;;4976824;28;20449;-79
2023/04/16 10:48:17;;;;;;;17.63;10.60;;;;;;;;;;5012188;28;20037;-80
2023/04/16 10:50:53;;;;;;;20.23;10.95;;;;;;;;;;4996045;28;20038;-80
2023/04/16 10:53:27;;;;;;;19.48;10.77;;;;;;;;;;5003647;28;20498;-79
2023/04/16 10:56:02;;;;;;;17.48;10.65;;;;;;;;;;5010698;28;20087;-80
2023/04/16 10:58:41;;;;;;;19.83;10.50;;;;;;;;;;5012734;28;20046;-80
2023/04/16 11:01:12;;;;;;;17.33;10.07;;;;;;;;;;4980118;28;20042;-80
2023/04/16 11:03:47;;;;;;;20.10;11.32;;;;;;;;;;4986461;28;20522;-80
2023/04/16 11:06:15;;;;;;;20.17;11.02;;;;;;;;;;5010883;28;20458;-80
2023/04/16 11:08:42;;;;;;;;;;;;;;;;;;4995677;28;20037;-80
2023/04/16 11:11:08;;;;;;;22.17;11.15;;;;;;;;;;5012666;28;19917;-80
2023/04/16 11:13:35;;;;;;;23.60;12.73;;;;;;;;;;5010458;28;20083;-80
2023/04/16 11:16:01;;;;;;;21.20;11.70;;;;;;;;;;5009152;28;20080;-80
2023/04/16 11:18:26;;;;;;;21.63;11.25;;;;;;;;;;4986312;28;20038;-80
2023/04/16 11:20:51;;;;;;;21.33;11.60;;;;;;;;;;5010208;28;20037;-80
2023/04/16 11:23:17;;;;;;;21.48;12.40;;;;;;;;;;5010038;28;20144;-80
2023/04/16 11:25:42;;;;;;;22.27;11.48;;;;;;;;;;4991224;28;20038;-80
2023/04/16 11:28:07;;;;;;;19.08;10.77;;;;;;;;;;5011506;28;20045;-80
2023/04/16 11:30:37;;;;;;;20.95;11.73;;;;;;;;;;4985872;28;20038;-80
2023/04/16 11:33:08;;;;;;;20.33;11.23;;;;;;;;;;4998164;28;20033;-81
2023/04/16 11:35:33;;;;;;;18.55;10.85;;;;;;;;;;4991194;28;20038;-80
2023/04/16 11:37:59;;;;;;;22.42;11.88;;;;;;;;;;4994769;28;20038;-80
2023/04/16 11:40:28;;;;;;;22.02;11.05;;;;;;;;;;5012047;28;20073;-80
2023/04/16 11:42:54;;;;;;;21.92;11.48;;;;;;;;;;5003039;28;20888;-80
2023/04/16 11:45:19;;;;;;;16.70;10.40;;;;;;;;;;4998510;28;20049;-82
2023/04/16 11:47:50;;;;;;;19.77;11.68;;;;;;;;;;4995571;28;20046;-81
2023/04/16 11:50:26;;;;;;;16.38;10.27;;;;;;;;;;5003881;28;20390;-81
2023/04/16 11:52:52;;;;;;;16.52;10.45;;;;;;;;;;5001993;28;20573;-82
2023/04/16 11:55:19;;;;;;;15.27;9.57;;;;;;;;;;4991220;28;20404;-81
2023/04/16 11:57:45;;;;;;;15.10;9.40;;;;;;;;;;4991936;28;20363;-81
2023/04/16 12:00:13;;;;;;;15.82;9.82;;;;;;;;;;4997818;28;20040;-81
2023/04/16 12:02:42;;;;;;;16.00;9.95;;;;;;;;;;5013439;28;20038;-81
2023/04/16 12:05:27;;;;;;;13.73;8.57;;;;;;;;;;4998868;28;20034;-81
2023/04/16 12:07:53;;;;;;;14.93;8.60;;;;;;;;;;4985761;28;20057;-81
2023/04/16 12:10:18;;;;;;;16.42;9.15;;;;;;;;;;5000003;28;20492;-81
2023/04/16 12:12:44;;;;;;;13.30;8.70;;;;;;;;;;4998232;28;20748;-80
2023/04/16 12:15:09;;;;;;;14.82;8.77;;;;;;;;;;5005676;28;20042;-82
2023/04/16 12:17:36;;;;;;;12.73;7.97;;;;;;;;;;5013762;28;20031;-81
2023/04/16 12:20:07;;;;;;;13.18;8.35;;;;;;;;;;4998017;28;20134;-81
2023/04/16 12:22:34;;;;;;;12.95;8.05;;;;;;;;;;4978268;28;20052;-81
2023/04/16 12:25:05;;;;;;;12.40;8.18;;;;;;;;;;5014303;28;20086;-81
2023/04/16 12:27:54;;;;;;;12.82;7.90;;;;;;;;;;5011141;28;20042;-81
2023/04/16 12:30:21;;;;;;;11.25;7.32;;;;;;;;;;5005581;28;20517;-81
2023/04/16 12:32:50;;;;;;;10.57;7.13;;;;;;;;;;5002122;28;20034;-80
2023/04/16 12:35:32;;;;;;;10.75;7.18;;;;;;;;;;4989217;28;20485;-81
2023/04/16 12:37:58;;;;;;;14.02;7.57;;;;;;;;;;4994950;28;20033;-82
2023/04/16 12:40:23;;;;;;;11.05;7.13;;;;;;;;;;4997456;28;20041;-82
2023/04/16 12:42:49;;;;;;;11.02;7.30;;;;;;;;;;4995309;28;20037;-81
2023/04/16 12:45:15;;;;;;;12.32;8.00;;;;;;;;;;4964767;28;20481;-82
2023/04/16 12:47:40;;;;;;;11.60;7.15;;;;;;;;;;4996259;28;20129;-81
2023/04/16 12:50:06;;;;;;;12.73;6.65;;;;;;;;;;4983678;28;20561;-82
2023/04/16 12:52:33;;;;;;;11.50;7.40;;;;;;;;;;4993625;28;20041;-80
2023/04/16 12:54:58;;;;;;;12.10;7.53;;;;;;;;;;5013275;28;20029;-81
2023/04/16 12:57:27;;;;;;;15.20;7.90;;;;;;;;;;4994718;28;20052;-80
2023/04/16 12:59:55;;;;;;;12.60;7.80;;;;;;;;;;5014217;28;20403;-80
2023/04/16 13:02:20;;;;;;;10.13;6.82;;;;;;;;;;4997946;28;20157;-81
2023/04/16 13:04:45;;;;;;;12.85;7.05;;;;;;;;;;4981469;28;20117;-80
2023/04/16 13:07:11;;;;;;;10.75;7.00;;;;;;;;;;4999553;28;20053;-84
2023/04/16 13:09:36;;;;;;;9.63;6.28;;;;;;;;;;4989250;28;20029;-81
2023/04/16 13:12:01;;;;;;;10.07;6.30;;;;;;;;;;4996570;28;20443;-80
2023/04/16 13:14:27;;;;;;;10.45;6.63;;;;;;;;;;5011847;28;20034;-80
2023/04/16 13:16:52;;;;;;;9.90;6.57;;;;;;;;;;4981732;28;20033;-80
2023/04/16 13:19:18;;;;;;;11.15;6.88;;;;;;;;;;5010526;28;20037;-80
2023/04/16 13:21:43;;;;;;;10.77;6.63;;;;;;;;;;4997909;28;20373;-80
2023/04/16 13:24:09;;;;;;;12.63;7.18;;;;;;;;;;5015891;28;20049;-80
2023/04/16 13:26:34;;;;;;;11.90;7.07;;;;;;;;;;4994359;28;20497;-79
2023/04/16 13:29:00;;;;;;;12.60;7.93;;;;;;;;;;5012412;28;20029;-81
2023/04/16 13:31:25;;;;;;;11.88;6.97;;;;;;;;;;5011451;28;20080;-82
2023/04/16 13:33:50;;;;;;;12.27;7.30;;;;;;;;;;4992783;28;20034;-81
2023/04/16 13:36:16;;;;;;;12.57;7.75;;;;;;;;;;4995376;28;20034;-80
2023/04/16 13:38:41;;;;;;;12.30;7.65;;;;;;;;;;5013594;28;20065;-80
2023/04/16 13:41:07;;;;;;;13.18;7.45;;;;;;;;;;4982366;28;20115;-81
2023/04/16 13:43:32;;;;;;;12.27;7.60;;;;;;;;;;4998344;28;20041;-80
2023/04/16 13:45:58;;;;;;;12.32;7.72;;;;;;;;;;4994851;28;20099;-80
2023/04/16 13:48:23;;;;;;;12.30;7.90;;;;;;;;;;4995885;28;20049;-81
2023/04/16 13:50:49;;;;;;;11.73;6.97;;;;;;;;;;5002491;28;20061;-81
2023/04/16 13:53:14;;;;;;;13.90;7.85;;;;;;;;;;4994666;28;20048;-81
2023/04/16 13:55:39;;;;;;;13.18;7.65;;;;;;;;;;5013459;28;20489;-81
2023/04/16 13:58:06;;;;;;;12.15;7.30;;;;;;;;;;4994785;28;20457;-81
2023/04/16 14:00:31;;;;;;;13.38;8.00;;;;;;;;;;4994565;28;20038;-80
2023/04/16 14:02:56;;;;;;;10.85;7.30;;;;;;;;;;4995166;28;20104;-81
2023/04/16 14:05:22;;;;;;;12.82;7.40;;;;;;;;;;5014102;28;20389;-80
2023/04/16 14:07:47;;;;;;;13.70;7.38;;;;;;;;;;4996773;28;20042;-80
2023/04/16 14:10:13;;;;;;;11.18;7.25;;;;;;;;;;4999705;28;20107;-81
2023/04/16 14:12:38;;;;;;;16.52;7.20;;;;;;;;;;4995590;28;20482;-81
2023/04/16 14:15:05;;;;;;;14.68;8.35;;;;;;;;;;5002010;28;20030;-80
2023/04/16 14:17:31;;;;;;;11.23;7.17;;;;;;;;;;4994182;28;20060;-80